sensor_id;sensor_type;location;lat;lon;timestamp;P1;durP1;ratioP1;P2;durP2;ratioP2
67372;SDS011;54257;54.496;18.412;2022-10-19T00:03:46;9.60;;;1.70;;
67372;SDS011;54257;54.496;18.412;2022-10-19T00:06:22;5.90;;;1.50;;
67372;SDS011;54257;54.496;18.412;2022-10-19T00:09:07;4.30;;;1.70;;
67372;SDS011;54257;54.496;18.412;2022-10-19T00:11:38;6.00;;;1.10;;
67372;SDS011;54257;54.496;18.412;2022-10-19T00:14:07;5.90;;;1.50;;
67372;SDS011;54257;54.496;18.412;2022-10-19T00:16:36;4.20;;;1.50;;
67372;SDS011;54257;54.496;18.412;2022-10-19T00:19:05;3.20;;;1.20;;
67372;SDS011;54257;54.496;18.412;2022-10-19T00:21:34;5.40;;;1.10;;
67372;SDS011;54257;54.496;18.412;2022-10-19T00:24:01;9.50;;;1.90;;
67372;SDS011;54257;54.496;18.412;2022-10-19T00:26:29;3.40;;;1.10;;
67372;SDS011;54257;54.496;18.412;2022-10-19T00:28:55;6.30;;;1.50;;
67372;SDS011;54257;54.496;18.412;2022-10-19T00:31:24;3.10;;;1.80;;
67372;SDS011;54257;54.496;18.412;2022-10-19T00:33:51;4.90;;;1.40;;
67372;SDS011;54257;54.496;18.412;2022-10-19T00:36:24;4.50;;;1.40;;
67372;SDS011;54257;54.496;18.412;2022-10-19T00:38:59;5.40;;;1.80;;
67372;SDS011;54257;54.496;18.412;2022-10-19T00:41:28;3.60;;;1.30;;
67372;SDS011;54257;54.496;18.412;2022-10-19T00:46:51;8.10;;;2.20;;
67372;SDS011;54257;54.496;18.412;2022-10-19T00:49:20;4.50;;;1.40;;
67372;SDS011;54257;54.496;18.412;2022-10-19T00:51:51;6.30;;;1.70;;
67372;SDS011;54257;54.496;18.412;2022-10-19T00:54:20;4.40;;;1.20;;
67372;SDS011;54257;54.496;18.412;2022-10-19T00:56:49;3.60;;;1.10;;
67372;SDS011;54257;54.496;18.412;2022-10-19T00:59:19;6.10;;;1.50;;
67372;SDS011;54257;54.496;18.412;2022-10-19T01:01:50;4.00;;;1.00;;
67372;SDS011;54257;54.496;18.412;2022-10-19T01:04:20;4.00;;;1.30;;
67372;SDS011;54257;54.496;18.412;2022-10-19T01:06:49;6.30;;;1.40;;
67372;SDS011;54257;54.496;18.412;2022-10-19T01:09:16;3.60;;;1.40;;
67372;SDS011;54257;54.496;18.412;2022-10-19T01:20:11;2.60;;;1.00;;
67372;SDS011;54257;54.496;18.412;2022-10-19T01:39:12;3.50;;;1.40;;
67372;SDS011;54257;54.496;18.412;2022-10-19T01:42:01;3.80;;;1.20;;
67372;SDS011;54257;54.496;18.412;2022-10-19T01:44:34;4.80;;;1.20;;
67372;SDS011;54257;54.496;18.412;2022-10-19T01:47:15;6.50;;;1.30;;
67372;SDS011;54257;54.496;18.412;2022-10-19T01:49:49;7.10;;;1.80;;
67372;SDS011;54257;54.496;18.412;2022-10-19T01:52:39;6.30;;;2.00;;
67372;SDS011;54257;54.496;18.412;2022-10-19T01:55:08;3.30;;;1.10;;
67372;SDS011;54257;54.496;18.412;2022-10-19T01:57:40;3.80;;;1.00;;
67372;SDS011;54257;54.496;18.412;2022-10-19T02:00:12;2.20;;;1.20;;
67372;SDS011;54257;54.496;18.412;2022-10-19T02:02:42;3.50;;;1.70;;
67372;SDS011;54257;54.496;18.412;2022-10-19T02:05:13;2.10;;;1.20;;
67372;SDS011;54257;54.496;18.412;2022-10-19T02:07:43;4.40;;;1.10;;
67372;SDS011;54257;54.496;18.412;2022-10-19T02:10:15;5.80;;;1.50;;
67372;SDS011;54257;54.496;18.412;2022-10-19T02:12:42;2.10;;;0.80;;
67372;SDS011;54257;54.496;18.412;2022-10-19T02:15:11;3.60;;;1.10;;
67372;SDS011;54257;54.496;18.412;2022-10-19T02:17:45;1.00;;;0.90;;
67372;SDS011;54257;54.496;18.412;2022-10-19T02:20:14;2.90;;;1.10;;
67372;SDS011;54257;54.496;18.412;2022-10-19T02:22:42;2.50;;;0.90;;
67372;SDS011;54257;54.496;18.412;2022-10-19T02:25:11;1.10;;;1.00;;
67372;SDS011;54257;54.496;18.412;2022-10-19T02:27:39;2.50;;;0.90;;
67372;SDS011;54257;54.496;18.412;2022-10-19T02:30:10;2.00;;;0.70;;
67372;SDS011;54257;54.496;18.412;2022-10-19T02:32:40;1.80;;;1.00;;
67372;SDS011;54257;54.496;18.412;2022-10-19T02:35:09;2.20;;;1.20;;
67372;SDS011;54257;54.496;18.412;2022-10-19T02:37:38;2.00;;;1.10;;
67372;SDS011;54257;54.496;18.412;2022-10-19T02:40:06;2.10;;;0.90;;
67372;SDS011;54257;54.496;18.412;2022-10-19T02:42:38;1.80;;;0.80;;
67372;SDS011;54257;54.496;18.412;2022-10-19T02:45:18;3.10;;;1.00;;
67372;SDS011;54257;54.496;18.412;2022-10-19T02:47:53;2.20;;;0.80;;
67372;SDS011;54257;54.496;18.412;2022-10-19T02:50:24;1.40;;;0.90;;
67372;SDS011;54257;54.496;18.412;2022-10-19T02:52:51;1.90;;;1.00;;
67372;SDS011;54257;54.496;18.412;2022-10-19T02:55:18;5.90;;;2.10;;
67372;SDS011;54257;54.496;18.412;2022-10-19T02:57:45;0.80;;;0.50;;
67372;SDS011;54257;54.496;18.412;2022-10-19T03:00:12;1.40;;;0.70;;
67372;SDS011;54257;54.496;18.412;2022-10-19T03:02:40;1.30;;;0.60;;
67372;SDS011;54257;54.496;18.412;2022-10-19T03:05:07;1.50;;;0.70;;
67372;SDS011;54257;54.496;18.412;2022-10-19T03:07:36;2.40;;;0.60;;
67372;SDS011;54257;54.496;18.412;2022-10-19T03:10:05;0.50;;;0.50;;
67372;SDS011;54257;54.496;18.412;2022-10-19T03:12:32;3.10;;;1.50;;
67372;SDS011;54257;54.496;18.412;2022-10-19T03:14:59;2.60;;;0.70;;
67372;SDS011;54257;54.496;18.412;2022-10-19T03:17:26;2.70;;;1.00;;
67372;SDS011;54257;54.496;18.412;2022-10-19T03:19:53;2.40;;;0.70;;
67372;SDS011;54257;54.496;18.412;2022-10-19T03:22:20;3.30;;;0.70;;
67372;SDS011;54257;54.496;18.412;2022-10-19T03:24:46;1.70;;;0.70;;
67372;SDS011;54257;54.496;18.412;2022-10-19T03:27:13;0.60;;;0.50;;
67372;SDS011;54257;54.496;18.412;2022-10-19T03:29:40;2.30;;;0.80;;
67372;SDS011;54257;54.496;18.412;2022-10-19T03:32:07;1.50;;;0.70;;
67372;SDS011;54257;54.496;18.412;2022-10-19T03:34:34;2.20;;;1.10;;
67372;SDS011;54257;54.496;18.412;2022-10-19T03:37:01;1.10;;;0.70;;
67372;SDS011;54257;54.496;18.412;2022-10-19T03:39:28;1.70;;;0.60;;
67372;SDS011;54257;54.496;18.412;2022-10-19T03:41:55;1.20;;;0.60;;
67372;SDS011;54257;54.496;18.412;2022-10-19T03:44:22;2.00;;;0.60;;
67372;SDS011;54257;54.496;18.412;2022-10-19T03:46:49;0.70;;;0.60;;
67372;SDS011;54257;54.496;18.412;2022-10-19T03:49:16;3.10;;;0.90;;
67372;SDS011;54257;54.496;18.412;2022-10-19T03:51:42;3.50;;;1.00;;
67372;SDS011;54257;54.496;18.412;2022-10-19T03:54:13;5.00;;;1.30;;
67372;SDS011;54257;54.496;18.412;2022-10-19T03:56:42;1.50;;;0.80;;
67372;SDS011;54257;54.496;18.412;2022-10-19T03:59:10;3.30;;;1.20;;
67372;SDS011;54257;54.496;18.412;2022-10-19T04:01:41;2.20;;;1.00;;
67372;SDS011;54257;54.496;18.412;2022-10-19T04:04:11;1.00;;;0.80;;
67372;SDS011;54257;54.496;18.412;2022-10-19T04:06:40;1.90;;;0.70;;
67372;SDS011;54257;54.496;18.412;2022-10-19T04:09:13;0.50;;;0.50;;
67372;SDS011;54257;54.496;18.412;2022-10-19T04:11:42;2.30;;;1.10;;
67372;SDS011;54257;54.496;18.412;2022-10-19T04:14:10;4.60;;;0.60;;
67372;SDS011;54257;54.496;18.412;2022-10-19T04:16:39;0.80;;;0.70;;
67372;SDS011;54257;54.496;18.412;2022-10-19T04:19:06;0.60;;;0.50;;
67372;SDS011;54257;54.496;18.412;2022-10-19T04:21:35;0.20;;;0.20;;
67372;SDS011;54257;54.496;18.412;2022-10-19T04:24:05;1.10;;;0.50;;
67372;SDS011;54257;54.496;18.412;2022-10-19T04:26:36;2.70;;;0.60;;
67372;SDS011;54257;54.496;18.412;2022-10-19T04:29:05;0.60;;;0.60;;
67372;SDS011;54257;54.496;18.412;2022-10-19T04:31:32;0.50;;;0.50;;
67372;SDS011;54257;54.496;18.412;2022-10-19T04:33:59;2.30;;;0.70;;
67372;SDS011;54257;54.496;18.412;2022-10-19T04:36:26;0.80;;;0.60;;
67372;SDS011;54257;54.496;18.412;2022-10-19T04:38:53;3.70;;;1.00;;
67372;SDS011;54257;54.496;18.412;2022-10-19T04:41:21;0.60;;;0.60;;
67372;SDS011;54257;54.496;18.412;2022-10-19T04:43:53;1.60;;;0.70;;
67372;SDS011;54257;54.496;18.412;2022-10-19T04:46:21;1.60;;;0.70;;
67372;SDS011;54257;54.496;18.412;2022-10-19T04:48:48;1.10;;;0.70;;
67372;SDS011;54257;54.496;18.412;2022-10-19T04:51:16;1.50;;;0.60;;
67372;SDS011;54257;54.496;18.412;2022-10-19T04:53:43;0.90;;;0.80;;
67372;SDS011;54257;54.496;18.412;2022-10-19T04:56:11;0.60;;;0.60;;
67372;SDS011;54257;54.496;18.412;2022-10-19T04:58:46;1.90;;;1.20;;
67372;SDS011;54257;54.496;18.412;2022-10-19T05:01:16;1.10;;;0.80;;
67372;SDS011;54257;54.496;18.412;2022-10-19T05:03:45;1.50;;;0.80;;
67372;SDS011;54257;54.496;18.412;2022-10-19T05:06:13;1.90;;;0.80;;
67372;SDS011;54257;54.496;18.412;2022-10-19T05:08:40;2.30;;;1.40;;
67372;SDS011;54257;54.496;18.412;2022-10-19T05:11:09;1.40;;;0.80;;
67372;SDS011;54257;54.496;18.412;2022-10-19T05:13:40;1.60;;;0.90;;
67372;SDS011;54257;54.496;18.412;2022-10-19T05:16:09;0.70;;;0.70;;
67372;SDS011;54257;54.496;18.412;2022-10-19T05:18:38;2.40;;;1.00;;
67372;SDS011;54257;54.496;18.412;2022-10-19T05:21:11;4.30;;;1.20;;
67372;SDS011;54257;54.496;18.412;2022-10-19T05:23:39;2.70;;;1.20;;
67372;SDS011;54257;54.496;18.412;2022-10-19T05:26:08;6.20;;;1.00;;
67372;SDS011;54257;54.496;18.412;2022-10-19T05:28:36;1.30;;;0.80;;
67372;SDS011;54257;54.496;18.412;2022-10-19T05:31:25;4.90;;;0.80;;
67372;SDS011;54257;54.496;18.412;2022-10-19T05:33:52;2.00;;;0.90;;
67372;SDS011;54257;54.496;18.412;2022-10-19T05:36:20;3.50;;;1.00;;
67372;SDS011;54257;54.496;18.412;2022-10-19T05:39:11;3.80;;;1.50;;
67372;SDS011;54257;54.496;18.412;2022-10-19T05:41:41;0.90;;;0.70;;
67372;SDS011;54257;54.496;18.412;2022-10-19T05:44:14;2.80;;;0.60;;
67372;SDS011;54257;54.496;18.412;2022-10-19T05:46:42;1.90;;;1.00;;
67372;SDS011;54257;54.496;18.412;2022-10-19T05:49:10;2.00;;;0.70;;
67372;SDS011;54257;54.496;18.412;2022-10-19T05:51:39;1.50;;;0.70;;
67372;SDS011;54257;54.496;18.412;2022-10-19T05:54:06;4.20;;;0.80;;
67372;SDS011;54257;54.496;18.412;2022-10-19T05:56:33;2.00;;;0.70;;
67372;SDS011;54257;54.496;18.412;2022-10-19T05:59:03;2.10;;;1.10;;
67372;SDS011;54257;54.496;18.412;2022-10-19T06:01:32;2.10;;;0.70;;
67372;SDS011;54257;54.496;18.412;2022-10-19T06:04:00;3.40;;;0.80;;
67372;SDS011;54257;54.496;18.412;2022-10-19T06:06:29;2.00;;;0.90;;
67372;SDS011;54257;54.496;18.412;2022-10-19T06:08:56;3.30;;;1.10;;
67372;SDS011;54257;54.496;18.412;2022-10-19T06:11:26;1.80;;;0.60;;
67372;SDS011;54257;54.496;18.412;2022-10-19T06:13:54;1.90;;;0.60;;
67372;SDS011;54257;54.496;18.412;2022-10-19T06:16:24;1.20;;;0.70;;
67372;SDS011;54257;54.496;18.412;2022-10-19T06:18:53;1.40;;;0.60;;
67372;SDS011;54257;54.496;18.412;2022-10-19T06:21:22;2.00;;;0.70;;
67372;SDS011;54257;54.496;18.412;2022-10-19T06:23:52;0.80;;;0.60;;
67372;SDS011;54257;54.496;18.412;2022-10-19T06:26:20;3.30;;;1.30;;
67372;SDS011;54257;54.496;18.412;2022-10-19T06:29:08;1.90;;;0.80;;
67372;SDS011;54257;54.496;18.412;2022-10-19T06:32:00;2.00;;;0.80;;
67372;SDS011;54257;54.496;18.412;2022-10-19T06:34:48;1.80;;;0.80;;
67372;SDS011;54257;54.496;18.412;2022-10-19T06:37:36;0.90;;;0.70;;
67372;SDS011;54257;54.496;18.412;2022-10-19T06:40:24;1.50;;;0.60;;
67372;SDS011;54257;54.496;18.412;2022-10-19T06:43:10;2.80;;;0.70;;
67372;SDS011;54257;54.496;18.412;2022-10-19T06:45:37;1.70;;;0.60;;
67372;SDS011;54257;54.496;18.412;2022-10-19T06:48:04;1.40;;;0.70;;
67372;SDS011;54257;54.496;18.412;2022-10-19T06:50:31;1.70;;;0.60;;
67372;SDS011;54257;54.496;18.412;2022-10-19T06:53:20;1.20;;;0.60;;
67372;SDS011;54257;54.496;18.412;2022-10-19T06:56:07;1.10;;;0.70;;
67372;SDS011;54257;54.496;18.412;2022-10-19T06:58:56;3.10;;;0.90;;
67372;SDS011;54257;54.496;18.412;2022-10-19T07:01:44;1.70;;;0.70;;
67372;SDS011;54257;54.496;18.412;2022-10-19T07:04:31;1.10;;;0.50;;
67372;SDS011;54257;54.496;18.412;2022-10-19T07:07:19;0.60;;;0.50;;
67372;SDS011;54257;54.496;18.412;2022-10-19T07:10:06;0.60;;;0.40;;
67372;SDS011;54257;54.496;18.412;2022-10-19T07:12:54;1.70;;;0.70;;
67372;SDS011;54257;54.496;18.412;2022-10-19T07:15:44;1.90;;;0.70;;
67372;SDS011;54257;54.496;18.412;2022-10-19T07:18:11;0.50;;;0.40;;
67372;SDS011;54257;54.496;18.412;2022-10-19T07:20:38;2.50;;;0.50;;
67372;SDS011;54257;54.496;18.412;2022-10-19T07:23:06;0.70;;;0.70;;
67372;SDS011;54257;54.496;18.412;2022-10-19T07:25:34;2.30;;;0.70;;
67372;SDS011;54257;54.496;18.412;2022-10-19T07:28:01;1.40;;;0.60;;
67372;SDS011;54257;54.496;18.412;2022-10-19T07:30:29;2.10;;;0.50;;
67372;SDS011;54257;54.496;18.412;2022-10-19T07:32:55;0.50;;;0.50;;
67372;SDS011;54257;54.496;18.412;2022-10-19T07:35:22;1.40;;;0.50;;
67372;SDS011;54257;54.496;18.412;2022-10-19T07:37:49;0.50;;;0.40;;
67372;SDS011;54257;54.496;18.412;2022-10-19T07:40:16;3.30;;;0.70;;
67372;SDS011;54257;54.496;18.412;2022-10-19T07:42:43;1.70;;;1.00;;
67372;SDS011;54257;54.496;18.412;2022-10-19T07:45:10;1.60;;;0.60;;
67372;SDS011;54257;54.496;18.412;2022-10-19T07:47:39;3.70;;;0.40;;
67372;SDS011;54257;54.496;18.412;2022-10-19T07:50:06;2.30;;;0.60;;
67372;SDS011;54257;54.496;18.412;2022-10-19T07:52:33;0.70;;;0.60;;
67372;SDS011;54257;54.496;18.412;2022-10-19T07:55:00;1.50;;;0.50;;
67372;SDS011;54257;54.496;18.412;2022-10-19T07:57:27;0.90;;;0.70;;
67372;SDS011;54257;54.496;18.412;2022-10-19T07:59:54;1.00;;;0.50;;
67372;SDS011;54257;54.496;18.412;2022-10-19T08:02:21;2.00;;;0.80;;
67372;SDS011;54257;54.496;18.412;2022-10-19T08:04:48;1.50;;;0.80;;
67372;SDS011;54257;54.496;18.412;2022-10-19T08:07:16;1.20;;;0.70;;
67372;SDS011;54257;54.496;18.412;2022-10-19T08:09:43;0.80;;;0.80;;
67372;SDS011;54257;54.496;18.412;2022-10-19T08:12:10;1.60;;;0.70;;
67372;SDS011;54257;54.496;18.412;2022-10-19T08:14:38;1.90;;;0.70;;
67372;SDS011;54257;54.496;18.412;2022-10-19T08:17:05;1.60;;;0.70;;
67372;SDS011;54257;54.496;18.412;2022-10-19T08:19:32;4.50;;;1.20;;
67372;SDS011;54257;54.496;18.412;2022-10-19T08:21:59;3.80;;;0.90;;
67372;SDS011;54257;54.496;18.412;2022-10-19T08:24:25;0.70;;;0.50;;
67372;SDS011;54257;54.496;18.412;2022-10-19T08:26:52;1.30;;;1.00;;
67372;SDS011;54257;54.496;18.412;2022-10-19T08:29:20;1.80;;;0.60;;
67372;SDS011;54257;54.496;18.412;2022-10-19T08:31:47;0.50;;;0.50;;
67372;SDS011;54257;54.496;18.412;2022-10-19T08:34:15;1.20;;;0.60;;
67372;SDS011;54257;54.496;18.412;2022-10-19T08:36:42;1.30;;;0.70;;
67372;SDS011;54257;54.496;18.412;2022-10-19T08:39:10;1.40;;;0.60;;
67372;SDS011;54257;54.496;18.412;2022-10-19T08:44:54;1.50;;;0.70;;
67372;SDS011;54257;54.496;18.412;2022-10-19T08:53:06;1.40;;;0.60;;
67372;SDS011;54257;54.496;18.412;2022-10-19T09:08:57;1.00;;;0.50;;
67372;SDS011;54257;54.496;18.412;2022-10-19T09:11:29;1.40;;;0.70;;
67372;SDS011;54257;54.496;18.412;2022-10-19T09:14:10;1.80;;;0.70;;
67372;SDS011;54257;54.496;18.412;2022-10-19T09:16:44;1.30;;;0.80;;
67372;SDS011;54257;54.496;18.412;2022-10-19T09:19:14;3.00;;;0.60;;
67372;SDS011;54257;54.496;18.412;2022-10-19T09:21:59;0.90;;;0.70;;
67372;SDS011;54257;54.496;18.412;2022-10-19T09:27:15;0.70;;;0.50;;
67372;SDS011;54257;54.496;18.412;2022-10-19T09:30:32;0.70;;;0.50;;
67372;SDS011;54257;54.496;18.412;2022-10-19T09:33:00;1.50;;;0.50;;
67372;SDS011;54257;54.496;18.412;2022-10-19T09:35:30;1.10;;;0.50;;
67372;SDS011;54257;54.496;18.412;2022-10-19T09:38:03;0.40;;;0.40;;
67372;SDS011;54257;54.496;18.412;2022-10-19T09:40:33;0.50;;;0.40;;
67372;SDS011;54257;54.496;18.412;2022-10-19T09:43:02;0.50;;;0.40;;
67372;SDS011;54257;54.496;18.412;2022-10-19T09:45:47;1.30;;;0.50;;
67372;SDS011;54257;54.496;18.412;2022-10-19T09:51:00;1.50;;;0.50;;
67372;SDS011;54257;54.496;18.412;2022-10-19T09:53:28;0.70;;;0.50;;
67372;SDS011;54257;54.496;18.412;2022-10-19T09:55:57;1.50;;;0.50;;
67372;SDS011;54257;54.496;18.412;2022-10-19T09:58:25;1.30;;;0.60;;
67372;SDS011;54257;54.496;18.412;2022-10-19T10:00:54;1.40;;;0.50;;
67372;SDS011;54257;54.496;18.412;2022-10-19T10:06:06;1.50;;;0.80;;
67372;SDS011;54257;54.496;18.412;2022-10-19T10:08:43;0.70;;;0.50;;
67372;SDS011;54257;54.496;18.412;2022-10-19T10:11:22;1.50;;;0.50;;
67372;SDS011;54257;54.496;18.412;2022-10-19T10:14:09;5.30;;;0.80;;
67372;SDS011;54257;54.496;18.412;2022-10-19T10:17:02;0.50;;;0.50;;
67372;SDS011;54257;54.496;18.412;2022-10-19T10:19:37;1.40;;;0.60;;
67372;SDS011;54257;54.496;18.412;2022-10-19T10:22:34;0.70;;;0.50;;
67372;SDS011;54257;54.496;18.412;2022-10-19T10:25:10;0.90;;;0.50;;
67372;SDS011;54257;54.496;18.412;2022-10-19T10:27:43;0.70;;;0.40;;
67372;SDS011;54257;54.496;18.412;2022-10-19T10:30:21;1.40;;;0.50;;
67372;SDS011;54257;54.496;18.412;2022-10-19T10:32:49;0.50;;;0.40;;
67372;SDS011;54257;54.496;18.412;2022-10-19T10:35:33;2.00;;;0.60;;
67372;SDS011;54257;54.496;18.412;2022-10-19T10:40:39;2.70;;;0.60;;
67372;SDS011;54257;54.496;18.412;2022-10-19T10:43:15;1.60;;;0.60;;
67372;SDS011;54257;54.496;18.412;2022-10-19T10:45:46;1.50;;;0.70;;
67372;SDS011;54257;54.496;18.412;2022-10-19T10:51:28;1.30;;;0.60;;
67372;SDS011;54257;54.496;18.412;2022-10-19T11:05:09;0.60;;;0.60;;
67372;SDS011;54257;54.496;18.412;2022-10-19T11:16:34;1.80;;;0.60;;
67372;SDS011;54257;54.496;18.412;2022-10-19T11:19:16;0.80;;;0.80;;
67372;SDS011;54257;54.496;18.412;2022-10-19T11:32:47;1.00;;;0.80;;
67372;SDS011;54257;54.496;18.412;2022-10-19T11:37:53;0.60;;;0.60;;
67372;SDS011;54257;54.496;18.412;2022-10-19T11:40:39;1.00;;;0.60;;
67372;SDS011;54257;54.496;18.412;2022-10-19T11:46:25;2.20;;;0.60;;
67372;SDS011;54257;54.496;18.412;2022-10-19T11:57:22;1.90;;;0.60;;
67372;SDS011;54257;54.496;18.412;2022-10-19T12:05:25;0.60;;;0.50;;
67372;SDS011;54257;54.496;18.412;2022-10-19T12:13:37;1.60;;;0.40;;
67372;SDS011;54257;54.496;18.412;2022-10-19T12:16:09;1.60;;;0.60;;
67372;SDS011;54257;54.496;18.412;2022-10-19T12:18:58;1.20;;;0.50;;
67372;SDS011;54257;54.496;18.412;2022-10-19T12:21:36;0.70;;;0.60;;
67372;SDS011;54257;54.496;18.412;2022-10-19T12:24:16;1.70;;;0.70;;
67372;SDS011;54257;54.496;18.412;2022-10-19T12:26:49;2.40;;;0.70;;
67372;SDS011;54257;54.496;18.412;2022-10-19T12:29:27;0.90;;;0.60;;
67372;SDS011;54257;54.496;18.412;2022-10-19T12:32:00;0.50;;;0.40;;
67372;SDS011;54257;54.496;18.412;2022-10-19T12:34:44;1.20;;;0.50;;
67372;SDS011;54257;54.496;18.412;2022-10-19T12:39:55;0.90;;;0.50;;
67372;SDS011;54257;54.496;18.412;2022-10-19T12:53:26;0.70;;;0.50;;
67372;SDS011;54257;54.496;18.412;2022-10-19T12:58:35;2.30;;;0.50;;
67372;SDS011;54257;54.496;18.412;2022-10-19T13:01:05;0.90;;;0.80;;
67372;SDS011;54257;54.496;18.412;2022-10-19T13:03:37;0.80;;;0.50;;
67372;SDS011;54257;54.496;18.412;2022-10-19T13:06:10;1.20;;;0.40;;
67372;SDS011;54257;54.496;18.412;2022-10-19T13:08:45;1.90;;;0.50;;
67372;SDS011;54257;54.496;18.412;2022-10-19T13:11:15;1.40;;;0.50;;
67372;SDS011;54257;54.496;18.412;2022-10-19T13:40:36;1.60;;;1.00;;
67372;SDS011;54257;54.496;18.412;2022-10-19T13:43:15;0.70;;;0.70;;
67372;SDS011;54257;54.496;18.412;2022-10-19T13:48:41;1.30;;;0.70;;
67372;SDS011;54257;54.496;18.412;2022-10-19T14:10:51;1.00;;;0.70;;
67372;SDS011;54257;54.496;18.412;2022-10-19T14:13:25;1.50;;;0.50;;
67372;SDS011;54257;54.496;18.412;2022-10-19T14:15:53;0.50;;;0.50;;
67372;SDS011;54257;54.496;18.412;2022-10-19T14:18:27;3.90;;;0.90;;
67372;SDS011;54257;54.496;18.412;2022-10-19T14:21:00;1.60;;;0.50;;
67372;SDS011;54257;54.496;18.412;2022-10-19T14:23:34;3.70;;;1.90;;
67372;SDS011;54257;54.496;18.412;2022-10-19T14:26:04;4.10;;;2.00;;
67372;SDS011;54257;54.496;18.412;2022-10-19T14:28:37;4.60;;;2.30;;
67372;SDS011;54257;54.496;18.412;2022-10-19T14:31:07;3.50;;;1.80;;
67372;SDS011;54257;54.496;18.412;2022-10-19T14:33:37;1.10;;;0.90;;
67372;SDS011;54257;54.496;18.412;2022-10-19T14:36:06;3.00;;;0.90;;
67372;SDS011;54257;54.496;18.412;2022-10-19T14:38:42;1.70;;;0.70;;
67372;SDS011;54257;54.496;18.412;2022-10-19T14:43:57;2.50;;;1.10;;
67372;SDS011;54257;54.496;18.412;2022-10-19T14:46:29;1.80;;;1.10;;
67372;SDS011;54257;54.496;18.412;2022-10-19T14:49:01;2.80;;;1.30;;
67372;SDS011;54257;54.496;18.412;2022-10-19T14:54:33;7.50;;;4.40;;
67372;SDS011;54257;54.496;18.412;2022-10-19T14:57:07;8.70;;;3.40;;
67372;SDS011;54257;54.496;18.412;2022-10-19T14:59:45;3.50;;;1.90;;
67372;SDS011;54257;54.496;18.412;2022-10-19T15:02:17;6.80;;;3.60;;
67372;SDS011;54257;54.496;18.412;2022-10-19T15:04:54;9.60;;;4.50;;
67372;SDS011;54257;54.496;18.412;2022-10-19T15:07:24;4.90;;;2.60;;
67372;SDS011;54257;54.496;18.412;2022-10-19T15:09:59;3.40;;;1.30;;
67372;SDS011;54257;54.496;18.412;2022-10-19T15:12:32;2.00;;;1.00;;
67372;SDS011;54257;54.496;18.412;2022-10-19T15:17:32;1.80;;;0.70;;
67372;SDS011;54257;54.496;18.412;2022-10-19T15:22:59;1.10;;;1.00;;
67372;SDS011;54257;54.496;18.412;2022-10-19T15:33:35;2.70;;;0.90;;
67372;SDS011;54257;54.496;18.412;2022-10-19T15:36:27;0.90;;;0.80;;
67372;SDS011;54257;54.496;18.412;2022-10-19T15:39:05;1.70;;;0.80;;
67372;SDS011;54257;54.496;18.412;2022-10-19T15:41:35;1.40;;;1.10;;
67372;SDS011;54257;54.496;18.412;2022-10-19T15:44:04;2.20;;;0.80;;
67372;SDS011;54257;54.496;18.412;2022-10-19T15:51:43;2.00;;;1.00;;
67372;SDS011;54257;54.496;18.412;2022-10-19T15:54:16;1.80;;;0.90;;
67372;SDS011;54257;54.496;18.412;2022-10-19T15:56:45;1.80;;;1.10;;
67372;SDS011;54257;54.496;18.412;2022-10-19T15:59:18;1.70;;;1.30;;
67372;SDS011;54257;54.496;18.412;2022-10-19T16:02:29;2.80;;;1.10;;
67372;SDS011;54257;54.496;18.412;2022-10-19T16:05:05;2.10;;;0.90;;
67372;SDS011;54257;54.496;18.412;2022-10-19T16:07:38;2.70;;;1.50;;
67372;SDS011;54257;54.496;18.412;2022-10-19T16:10:17;3.40;;;2.30;;
67372;SDS011;54257;54.496;18.412;2022-10-19T16:12:48;7.30;;;5.30;;
67372;SDS011;54257;54.496;18.412;2022-10-19T16:15:22;7.00;;;4.60;;
67372;SDS011;54257;54.496;18.412;2022-10-19T16:20:23;4.60;;;2.30;;
67372;SDS011;54257;54.496;18.412;2022-10-19T16:22:57;2.50;;;2.00;;
67372;SDS011;54257;54.496;18.412;2022-10-19T16:25:28;1.80;;;1.50;;
67372;SDS011;54257;54.496;18.412;2022-10-19T16:28:02;3.40;;;1.20;;
67372;SDS011;54257;54.496;18.412;2022-10-19T16:30:32;7.40;;;1.90;;
67372;SDS011;54257;54.496;18.412;2022-10-19T16:33:01;2.10;;;1.40;;
67372;SDS011;54257;54.496;18.412;2022-10-19T16:35:38;2.40;;;1.60;;
67372;SDS011;54257;54.496;18.412;2022-10-19T16:38:37;4.00;;;1.50;;
67372;SDS011;54257;54.496;18.412;2022-10-19T16:41:32;1.90;;;1.20;;
67372;SDS011;54257;54.496;18.412;2022-10-19T16:44:19;4.10;;;1.90;;
67372;SDS011;54257;54.496;18.412;2022-10-19T16:46:50;2.30;;;1.30;;
67372;SDS011;54257;54.496;18.412;2022-10-19T16:49:28;4.40;;;3.10;;
67372;SDS011;54257;54.496;18.412;2022-10-19T16:52:00;2.90;;;1.70;;
67372;SDS011;54257;54.496;18.412;2022-10-19T16:54:30;4.30;;;2.00;;
67372;SDS011;54257;54.496;18.412;2022-10-19T16:57:08;4.90;;;2.50;;
67372;SDS011;54257;54.496;18.412;2022-10-19T16:59:43;5.10;;;3.50;;
67372;SDS011;54257;54.496;18.412;2022-10-19T17:02:18;3.20;;;2.70;;
67372;SDS011;54257;54.496;18.412;2022-10-19T17:04:48;4.00;;;2.40;;
67372;SDS011;54257;54.496;18.412;2022-10-19T17:07:16;3.30;;;2.80;;
67372;SDS011;54257;54.496;18.412;2022-10-19T17:10:04;6.10;;;3.00;;
67372;SDS011;54257;54.496;18.412;2022-10-19T17:13:09;5.00;;;2.60;;
67372;SDS011;54257;54.496;18.412;2022-10-19T17:15:38;4.40;;;3.00;;
67372;SDS011;54257;54.496;18.412;2022-10-19T17:18:06;4.10;;;2.90;;
67372;SDS011;54257;54.496;18.412;2022-10-19T17:20:33;6.60;;;2.80;;
67372;SDS011;54257;54.496;18.412;2022-10-19T17:23:00;4.30;;;2.80;;
67372;SDS011;54257;54.496;18.412;2022-10-19T17:25:28;4.40;;;2.30;;
67372;SDS011;54257;54.496;18.412;2022-10-19T17:27:55;3.50;;;2.60;;
67372;SDS011;54257;54.496;18.412;2022-10-19T17:30:22;4.70;;;3.30;;
67372;SDS011;54257;54.496;18.412;2022-10-19T17:32:49;5.50;;;3.80;;
67372;SDS011;54257;54.496;18.412;2022-10-19T17:35:16;7.00;;;4.60;;
67372;SDS011;54257;54.496;18.412;2022-10-19T17:37:43;7.60;;;3.10;;
67372;SDS011;54257;54.496;18.412;2022-10-19T17:40:10;5.10;;;3.40;;
67372;SDS011;54257;54.496;18.412;2022-10-19T17:42:38;5.10;;;3.10;;
67372;SDS011;54257;54.496;18.412;2022-10-19T17:45:05;5.40;;;3.30;;
67372;SDS011;54257;54.496;18.412;2022-10-19T17:47:33;7.20;;;3.80;;
67372;SDS011;54257;54.496;18.412;2022-10-19T17:50:00;6.80;;;3.80;;
67372;SDS011;54257;54.496;18.412;2022-10-19T17:52:27;6.10;;;3.50;;
67372;SDS011;54257;54.496;18.412;2022-10-19T17:54:54;4.90;;;2.90;;
67372;SDS011;54257;54.496;18.412;2022-10-19T17:57:21;3.70;;;2.40;;
67372;SDS011;54257;54.496;18.412;2022-10-19T17:59:49;3.80;;;2.30;;
67372;SDS011;54257;54.496;18.412;2022-10-19T18:02:19;3.80;;;2.50;;
67372;SDS011;54257;54.496;18.412;2022-10-19T18:04:46;8.10;;;3.50;;
67372;SDS011;54257;54.496;18.412;2022-10-19T18:07:13;8.20;;;5.80;;
67372;SDS011;54257;54.496;18.412;2022-10-19T18:09:40;9.30;;;5.60;;
67372;SDS011;54257;54.496;18.412;2022-10-19T18:12:08;7.20;;;5.00;;
67372;SDS011;54257;54.496;18.412;2022-10-19T18:14:38;8.80;;;5.10;;
67372;SDS011;54257;54.496;18.412;2022-10-19T18:17:05;6.30;;;3.40;;
67372;SDS011;54257;54.496;18.412;2022-10-19T18:19:33;4.50;;;3.50;;
67372;SDS011;54257;54.496;18.412;2022-10-19T18:22:00;6.30;;;4.80;;
67372;SDS011;54257;54.496;18.412;2022-10-19T18:24:27;6.80;;;4.20;;
67372;SDS011;54257;54.496;18.412;2022-10-19T18:26:55;6.40;;;4.10;;
67372;SDS011;54257;54.496;18.412;2022-10-19T18:29:23;3.90;;;2.70;;
67372;SDS011;54257;54.496;18.412;2022-10-19T18:31:52;7.30;;;3.80;;
67372;SDS011;54257;54.496;18.412;2022-10-19T18:34:21;5.40;;;3.20;;
67372;SDS011;54257;54.496;18.412;2022-10-19T18:36:51;2.80;;;2.50;;